createdAt,value
2018-12-01T00:02:32.046Z,11.60
2018-12-01T00:06:44.141Z,11.70
2018-12-01T00:10:56.430Z,11.80
2018-12-01T00:15:10.929Z,11.80
2018-12-01T00:19:22.877Z,11.90
2018-12-01T00:23:34.920Z,11.90
2018-12-01T00:27:47.047Z,11.90
2018-12-01T00:31:59.249Z,11.90
2018-12-01T00:36:11.352Z,11.80
2018-12-01T00:40:23.760Z,11.70
2018-12-01T00:44:36.120Z,11.60
2018-12-01T00:48:48.306Z,11.60
2018-12-01T00:53:00.407Z,11.60
2018-12-01T00:57:12.502Z,11.60
2018-12-01T01:01:24.826Z,11.60
2018-12-01T01:05:36.990Z,11.60
2018-12-01T01:09:49.236Z,11.50
2018-12-01T01:14:01.543Z,11.60
2018-12-01T01:18:13.782Z,11.60
2018-12-01T01:22:26.072Z,11.70
2018-12-01T01:26:38.277Z,11.70
2018-12-01T01:30:50.497Z,11.70
2018-12-01T01:35:02.616Z,11.70
2018-12-01T01:39:14.969Z,11.70
2018-12-01T01:43:27.128Z,11.80
2018-12-01T01:47:39.391Z,11.80
2018-12-01T01:51:51.642Z,11.80
2018-12-01T01:56:03.768Z,11.80
2018-12-01T02:00:17.717Z,11.70
2018-12-01T02:04:30.027Z,11.50
2018-12-01T02:08:42.226Z,11.40
2018-12-01T02:12:54.429Z,11.50
2018-12-01T02:17:06.889Z,11.60
2018-12-01T02:21:18.995Z,11.60
2018-12-01T02:25:31.094Z,11.70
2018-12-01T02:29:43.323Z,11.70
2018-12-01T02:33:55.400Z,11.70
2018-12-01T02:38:07.519Z,11.70
2018-12-01T02:42:19.619Z,11.70
2018-12-01T02:46:41.411Z,11.70
2018-12-01T02:50:53.477Z,11.70
2018-12-01T02:55:05.589Z,11.70
2018-12-01T02:59:17.683Z,11.70
2018-12-01T03:03:29.904Z,11.70
2018-12-01T03:07:42.215Z,11.70
2018-12-01T03:11:54.410Z,11.70
2018-12-01T03:16:06.736Z,11.70
2018-12-01T03:20:19.412Z,11.60
2018-12-01T03:24:31.352Z,11.60
2018-12-01T03:28:43.526Z,11.60
2018-12-01T03:32:56.381Z,11.70
2018-12-01T03:37:08.508Z,11.80
2018-12-01T03:41:20.496Z,11.80
2018-12-01T03:45:32.508Z,11.80
2018-12-01T03:49:44.762Z,11.80
2018-12-01T03:53:56.930Z,11.80
2018-12-01T03:58:09.240Z,11.90
2018-12-01T04:02:21.557Z,11.90
2018-12-01T04:06:33.882Z,11.90
2018-12-01T04:10:46.092Z,11.90
2018-12-01T04:14:58.202Z,12.00
2018-12-01T04:19:10.204Z,11.90
2018-12-01T04:23:22.304Z,11.90
2018-12-01T04:27:34.518Z,11.90
2018-12-01T04:31:46.819Z,12.00
2018-12-01T04:35:59.049Z,12.00
2018-12-01T04:40:11.518Z,12.00
2018-12-01T04:44:23.826Z,12.00
2018-12-01T04:48:36.044Z,12.10
2018-12-01T04:52:49.491Z,12.00
2018-12-01T04:57:01.182Z,11.90
2018-12-01T05:01:13.388Z,12.00
2018-12-01T05:05:25.372Z,12.10
2018-12-01T05:09:37.323Z,12.10
2018-12-01T05:13:49.444Z,12.10
2018-12-01T05:18:01.576Z,12.10
2018-12-01T05:22:13.579Z,12.10
2018-12-01T05:26:25.678Z,12.20
2018-12-01T05:30:37.780Z,12.10
2018-12-01T05:34:49.987Z,12.20
2018-12-01T05:39:02.200Z,12.30
2018-12-01T05:43:14.568Z,12.30
2018-12-01T05:47:26.713Z,12.30
2018-12-01T05:51:38.923Z,12.30
2018-12-01T05:55:51.162Z,12.30
2018-12-01T06:00:03.203Z,12.40
2018-12-01T06:04:15.374Z,12.40
2018-12-01T06:08:27.460Z,12.40
2018-12-01T06:12:39.692Z,12.40
2018-12-01T06:16:51.785Z,12.40
2018-12-01T06:21:04.205Z,12.40
2018-12-01T06:25:17.052Z,12.40
2018-12-01T06:29:29.019Z,12.50
2018-12-01T06:33:41.082Z,12.60
2018-12-01T06:37:53.493Z,12.60
2018-12-01T06:42:05.327Z,12.60
2018-12-01T06:46:17.379Z,12.60
2018-12-01T06:50:29.368Z,12.60
2018-12-01T06:54:41.574Z,12.60
2018-12-01T06:58:53.911Z,12.70
2018-12-01T07:03:06.218Z,12.60
2018-12-01T07:07:18.419Z,12.70
2018-12-01T07:11:30.631Z,12.60
2018-12-01T07:15:43.026Z,12.70
2018-12-01T07:19:55.238Z,12.70
2018-12-01T07:24:07.570Z,12.70
2018-12-01T07:28:19.722Z,12.70
2018-12-01T07:32:31.923Z,12.70
2018-12-01T07:36:43.993Z,12.80
2018-12-01T07:40:56.215Z,12.80
2018-12-01T07:45:10.061Z,12.80
2018-12-01T07:49:22.160Z,12.90
2018-12-01T07:53:34.363Z,12.90
2018-12-01T07:57:46.566Z,12.90
2018-12-01T08:01:58.878Z,12.90
2018-12-01T08:06:10.577Z,13.00
2018-12-01T08:10:22.462Z,13.00
2018-12-01T08:14:34.359Z,13.00
2018-12-01T08:18:46.435Z,13.10
2018-12-01T08:22:58.642Z,13.10
2018-12-01T08:27:10.621Z,13.10
2018-12-01T08:31:22.835Z,13.20
2018-12-01T08:35:35.045Z,13.10
2018-12-01T08:39:47.366Z,13.20
2018-12-01T08:43:59.670Z,13.20
2018-12-01T08:48:11.871Z,13.20
2018-12-01T08:53:27.944Z,13.20
2018-12-01T08:57:39.835Z,13.30
2018-12-01T09:01:51.842Z,13.30
2018-12-01T09:06:03.727Z,13.30
2018-12-01T09:10:15.983Z,13.30
2018-12-01T09:14:28.022Z,13.30
2018-12-01T09:18:40.142Z,13.40
2018-12-01T09:22:52.226Z,13.40
2018-12-01T09:27:04.506Z,13.40
2018-12-01T09:31:16.737Z,13.40
2018-12-01T09:35:28.870Z,13.40
2018-12-01T09:39:41.163Z,13.40
2018-12-01T09:43:53.483Z,13.40
2018-12-01T09:48:05.873Z,13.40
2018-12-01T09:52:18.115Z,13.40
2018-12-01T09:56:30.328Z,13.40
2018-12-01T10:00:42.534Z,13.40
2018-12-01T10:04:54.573Z,13.40
2018-12-01T10:09:09.275Z,13.40
2018-12-01T10:13:21.415Z,13.40
2018-12-01T10:17:33.433Z,13.50
2018-12-01T10:21:45.631Z,13.50
2018-12-01T10:25:57.848Z,13.50
2018-12-01T10:30:19.129Z,13.50
2018-12-01T10:34:31.471Z,13.50
2018-12-01T10:38:43.687Z,13.50
2018-12-01T10:42:55.601Z,13.50
2018-12-01T10:47:07.565Z,13.50
2018-12-01T10:51:43.214Z,13.50
2018-12-01T10:55:56.179Z,13.50
2018-12-01T11:00:11.127Z,13.50
2018-12-01T11:04:28.190Z,13.50
2018-12-01T11:08:40.404Z,13.60
2018-12-01T11:12:52.847Z,13.60
2018-12-01T11:17:04.958Z,13.60
2018-12-01T11:21:17.049Z,13.60
2018-12-01T11:25:29.170Z,13.60
2018-12-01T11:29:58.222Z,13.60
2018-12-01T11:34:10.912Z,13.60
2018-12-01T11:38:36.943Z,13.70
2018-12-01T11:42:49.757Z,13.60
2018-12-01T11:47:02.027Z,13.70
2018-12-01T11:51:14.180Z,13.70
2018-12-01T11:55:26.530Z,13.70
2018-12-01T11:59:38.604Z,13.70
2018-12-01T12:03:50.732Z,13.70
2018-12-01T12:08:24.054Z,13.70
2018-12-01T12:12:53.556Z,13.70
2018-12-01T12:17:23.557Z,13.60
2018-12-01T12:21:57.931Z,13.70
2018-12-01T12:26:10.109Z,13.70
2018-12-01T12:30:25.895Z,13.70
2018-12-01T12:34:36.078Z,13.70
2018-12-01T12:38:47.965Z,13.70
2018-12-01T12:43:00.780Z,13.80
2018-12-01T12:47:12.962Z,13.80
2018-12-01T12:51:25.331Z,13.80
2018-12-01T12:55:37.413Z,13.80
2018-12-01T12:59:49.498Z,13.70
2018-12-01T13:04:01.703Z,13.80
2018-12-01T13:08:14.634Z,13.80
2018-12-01T13:12:26.672Z,13.80
2018-12-01T13:16:38.653Z,13.80
2018-12-01T13:20:50.718Z,13.80
2018-12-01T13:25:02.756Z,13.70
2018-12-01T13:29:14.966Z,13.80
2018-12-01T13:33:27.449Z,13.70
2018-12-01T13:37:39.506Z,13.80
2018-12-01T13:41:52.562Z,13.70
2018-12-01T13:46:04.483Z,13.80
2018-12-01T13:50:18.452Z,13.70
2018-12-01T13:54:30.456Z,13.70
2018-12-01T13:58:42.395Z,13.70
2018-12-01T14:02:54.508Z,13.70
2018-12-01T14:07:06.736Z,13.80
2018-12-01T14:11:18.724Z,13.80
2018-12-01T14:15:30.820Z,13.80
2018-12-01T14:19:43.027Z,13.80
2018-12-01T14:23:55.262Z,13.80
2018-12-01T14:28:08.676Z,13.70
2018-12-01T14:32:20.577Z,13.80
2018-12-01T14:36:32.536Z,13.80
2018-12-01T14:40:46.358Z,13.80
2018-12-01T14:44:58.287Z,13.80
2018-12-01T14:49:10.207Z,13.80
2018-12-01T14:53:22.265Z,13.90
2018-12-01T14:57:34.398Z,13.80
2018-12-01T15:01:46.593Z,13.80
2018-12-01T15:05:58.686Z,13.80
2018-12-01T15:10:26.362Z,13.80
2018-12-01T15:14:38.682Z,13.80
2018-12-01T15:18:50.780Z,13.80
2018-12-01T15:23:03.002Z,13.80
2018-12-01T15:27:15.104Z,13.80
2018-12-01T15:31:27.343Z,13.80
2018-12-01T15:35:39.539Z,13.70
2018-12-01T15:39:51.731Z,13.70
2018-12-01T15:44:04.272Z,13.70
2018-12-01T15:48:16.205Z,13.70
2018-12-01T15:52:28.296Z,13.70
2018-12-01T15:56:40.471Z,13.60
2018-12-01T16:00:52.940Z,13.70
2018-12-01T16:05:05.357Z,13.60
2018-12-01T16:09:17.438Z,13.60
2018-12-01T16:13:30.180Z,13.60
2018-12-01T16:17:42.043Z,13.60
2018-12-01T16:21:54.167Z,13.50
2018-12-01T16:26:07.006Z,13.50
2018-12-01T16:30:19.925Z,13.50
2018-12-01T16:34:31.956Z,13.50
2018-12-01T16:38:44.031Z,13.60
2018-12-01T16:42:56.572Z,13.40
2018-12-01T16:47:08.753Z,13.50
2018-12-01T16:51:20.718Z,13.50
2018-12-01T16:55:32.837Z,13.50
2018-12-01T16:59:44.795Z,13.50
2018-12-01T17:03:56.971Z,13.50
2018-12-01T17:08:09.468Z,13.50
2018-12-01T17:12:21.602Z,13.50
2018-12-01T17:16:33.613Z,13.50
2018-12-01T17:20:45.623Z,13.50
2018-12-01T17:24:57.630Z,13.50
2018-12-01T17:29:09.895Z,13.50
2018-12-01T17:33:22.019Z,13.50
2018-12-01T17:37:34.174Z,13.40
2018-12-01T17:41:46.521Z,13.40
2018-12-01T17:45:58.562Z,13.40
2018-12-01T17:50:14.862Z,13.40
2018-12-01T17:54:26.928Z,13.50
2018-12-01T17:58:38.931Z,13.50
2018-12-01T18:02:51.663Z,13.50
2018-12-01T18:07:03.440Z,13.50
2018-12-01T18:11:19.747Z,13.60
2018-12-01T18:15:31.812Z,13.60
2018-12-01T18:19:44.010Z,13.60
2018-12-01T18:23:56.534Z,13.60
2018-12-01T18:28:11.760Z,13.60
2018-12-01T18:32:24.068Z,13.60
2018-12-01T18:36:36.253Z,13.60
2018-12-01T18:40:48.592Z,13.60
2018-12-01T18:45:01.630Z,13.60
2018-12-01T18:49:13.078Z,13.60
2018-12-01T18:53:25.406Z,13.60
2018-12-01T18:57:37.593Z,13.60
2018-12-01T19:01:51.258Z,13.50
2018-12-01T19:06:03.563Z,13.50
2018-12-01T19:10:18.085Z,13.50
2018-12-01T19:14:30.132Z,13.50
2018-12-01T19:18:42.348Z,13.50
2018-12-01T19:22:54.557Z,13.50
2018-12-01T19:27:06.808Z,13.30
2018-12-01T19:31:19.095Z,13.40
2018-12-01T19:35:31.327Z,13.40
2018-12-01T19:39:43.487Z,13.50
2018-12-01T19:43:55.726Z,13.40
2018-12-01T19:48:08.549Z,13.50
2018-12-01T19:52:20.886Z,13.40
2018-12-01T19:56:32.886Z,13.40
2018-12-01T20:00:46.147Z,13.40
2018-12-01T20:04:58.214Z,13.40
2018-12-01T20:09:10.884Z,13.50
2018-12-01T20:13:27.828Z,13.50
2018-12-01T20:17:39.722Z,13.50
2018-12-01T20:21:51.774Z,13.50
2018-12-01T20:26:03.967Z,13.50
2018-12-01T20:30:20.243Z,13.50
2018-12-01T20:34:32.168Z,13.50
2018-12-01T20:38:54.053Z,13.50
2018-12-01T20:43:05.894Z,13.50
2018-12-01T20:47:18.115Z,13.50
2018-12-01T20:51:30.288Z,13.40
2018-12-01T20:55:44.494Z,13.50
2018-12-01T20:59:56.940Z,13.50
2018-12-01T21:04:08.785Z,13.50
2018-12-01T21:08:22.701Z,13.50
2018-12-01T21:12:32.677Z,13.50
2018-12-01T21:16:44.721Z,13.50
2018-12-01T21:20:56.922Z,13.50
2018-12-01T21:25:10.871Z,13.50
2018-12-01T21:29:22.896Z,13.40
2018-12-01T21:33:35.556Z,13.40
2018-12-01T21:37:47.353Z,13.50
2018-12-01T21:41:59.341Z,13.50
2018-12-01T21:46:11.518Z,13.50
2018-12-01T21:50:23.909Z,13.60
2018-12-01T21:54:36.241Z,13.60
2018-12-01T21:58:48.500Z,13.60
2018-12-01T22:03:10.648Z,13.60
2018-12-01T22:07:22.493Z,13.60
2018-12-01T22:11:34.567Z,13.60
2018-12-01T22:15:46.681Z,13.70
2018-12-01T22:19:58.840Z,13.70
2018-12-01T22:24:10.836Z,13.70
2018-12-01T22:28:22.942Z,13.70
2018-12-01T22:32:35.252Z,13.70
2018-12-01T22:36:47.359Z,13.70
2018-12-01T22:40:59.772Z,13.70
2018-12-01T22:45:12.215Z,13.70
2018-12-01T22:49:24.322Z,13.70
2018-12-01T22:53:36.528Z,13.70
2018-12-01T22:57:51.562Z,13.70
2018-12-01T23:02:03.858Z,13.60
2018-12-01T23:06:16.073Z,13.60
2018-12-01T23:10:28.153Z,13.60
2018-12-01T23:14:40.035Z,13.60
2018-12-01T23:18:52.489Z,13.60
2018-12-01T23:23:04.512Z,13.60
2018-12-01T23:27:16.567Z,13.60
2018-12-01T23:31:28.772Z,13.60
2018-12-01T23:35:40.977Z,13.60
2018-12-01T23:39:53.216Z,13.60
2018-12-01T23:44:05.484Z,13.70
2018-12-01T23:48:17.630Z,13.60
2018-12-01T23:52:29.759Z,13.70
2018-12-01T23:56:41.831Z,13.70
